Airport View

Enter AWOS ICAO identifier for current METAR.

ex. KFNL

KDYB 300405Z AUTO 22009G17KT 200V260 10SM FEW015 SCT020 BKN025 24/23 A2964 RMK AO2

30 Oct 2020 04:04

Frequency: 119.575

Phone: 843-821-8403

Other Area AWOS: KMKS - KCHS - KRBW - KJZI

TAF AMD KCHS 300256Z 3003/3024 21014G21KT P6SM BKN015 FM300430 24018G28KT P6SM SCT020 FM300700 27016G25KT P6SM FEW050 FM301100 29012G18KT P6SM SKC FM301600 33010KT P6SM SKC